Weather at Murmuring Springs Airport

Public forecast

Using degrees Fahrenheit for public forecast. Weather courtesy of forecast.io.

Closest aviation weather report (METAR) to Murmuring Springs Airport

Closest report is Volk Field, 10.9 nm (20.2 km) WSW. Retrieved 2021/03/03 09:56 UTC (1 hour ago):

KVOK 030956Z AUTO 27005KT 10SM CLR M05/M05 A2986 RMK AO2 SLP124 T10481048

Closest aviation forecast (TAF) to Murmuring Springs Airport

Closest forecast is Volk Field, 10.9 nm (20.2 km) WSW. Retrieved 2021/03/03 09:06 UTC (2 hours ago):

TAF KVOK 030900Z 0309/0415 30006KT 9999 SKC QNH2984INS BECMG 0400/0401 33009KT 9999 BKN065 620654 QNH3008INS BECMG 0403/0404 VRB03KT 3200 BR BKN004 OVC010 620042 QNH3015INS BECMG 0413/0414 10009KT 9999 NSW SCT010 SCT080 QNH3027INS TX06/0322Z TNM03/0313Z